createdAt,value
2023-03-29T00:01:36.629Z,6.94
2023-03-29T00:04:03.473Z,6.70
2023-03-29T00:06:30.140Z,6.79
2023-03-29T00:08:56.706Z,6.44
2023-03-29T00:11:23.276Z,6.62
2023-03-29T00:13:49.817Z,6.52
2023-03-29T00:16:16.410Z,6.42
2023-03-29T00:18:42.991Z,6.47
2023-03-29T00:21:09.671Z,6.57
2023-03-29T00:23:36.411Z,6.65
2023-03-29T00:26:03.834Z,6.85
2023-03-29T00:28:31.438Z,6.81
2023-03-29T00:30:58.152Z,6.63
2023-03-29T00:33:24.924Z,6.61
2023-03-29T00:35:51.706Z,6.65
2023-03-29T00:38:18.310Z,6.67
2023-03-29T00:40:44.885Z,6.67
2023-03-29T00:43:11.654Z,6.66
2023-03-29T00:45:38.285Z,6.65
2023-03-29T00:48:04.881Z,6.56
2023-03-29T00:50:31.480Z,6.18
2023-03-29T00:52:58.225Z,6.30
2023-03-29T00:55:24.888Z,6.29
2023-03-29T00:57:51.469Z,6.21
2023-03-29T01:00:18.069Z,6.33
2023-03-29T01:02:44.754Z,6.28
2023-03-29T01:05:11.301Z,6.33
2023-03-29T01:07:37.876Z,6.18
2023-03-29T01:10:04.473Z,6.10
2023-03-29T01:12:31.113Z,6.17
2023-03-29T01:14:57.672Z,6.22
2023-03-29T01:17:24.285Z,6.13
2023-03-29T01:19:50.976Z,6.20
2023-03-29T01:22:17.561Z,6.34
2023-03-29T01:24:44.133Z,6.39
2023-03-29T01:27:10.722Z,6.36
2023-03-29T01:29:37.275Z,6.40
2023-03-29T01:32:03.908Z,6.44
2023-03-29T01:34:30.563Z,6.37
2023-03-29T01:36:57.203Z,6.22
2023-03-29T01:39:23.913Z,6.21
2023-03-29T01:41:50.473Z,6.18
2023-03-29T01:44:17.086Z,6.22
2023-03-29T01:46:43.668Z,6.21
2023-03-29T01:49:10.268Z,6.12
2023-03-29T01:51:36.819Z,6.21
2023-03-29T01:54:03.549Z,6.09
2023-03-29T01:56:30.141Z,6.15
2023-03-29T01:58:56.737Z,6.21
2023-03-29T02:01:23.341Z,6.22
2023-03-29T02:03:50.106Z,6.23
2023-03-29T02:06:16.701Z,6.24
2023-03-29T02:08:43.375Z,6.16
2023-03-29T02:11:09.990Z,6.25
2023-03-29T02:13:36.587Z,6.29
2023-03-29T02:16:03.331Z,6.16
2023-03-29T02:18:29.949Z,6.22
2023-03-29T02:20:56.526Z,6.25
2023-03-29T02:23:23.163Z,6.28
2023-03-29T02:25:49.809Z,6.30
2023-03-29T02:28:16.377Z,6.30
2023-03-29T02:30:43.056Z,6.28
2023-03-29T02:33:09.671Z,6.18
2023-03-29T02:35:36.382Z,6.24
2023-03-29T02:38:03.044Z,6.27
2023-03-29T02:40:29.641Z,6.16
2023-03-29T02:42:56.284Z,5.95
2023-03-29T02:45:22.869Z,5.97
2023-03-29T02:47:49.660Z,5.99
2023-03-29T02:50:16.368Z,5.98
2023-03-29T02:52:43.049Z,5.99
2023-03-29T02:55:09.684Z,5.88
2023-03-29T02:57:36.262Z,5.68
2023-03-29T03:00:02.947Z,5.97
2023-03-29T03:02:29.891Z,5.94
2023-03-29T03:04:56.442Z,6.00
2023-03-29T03:07:23.044Z,6.08
2023-03-29T03:09:49.593Z,6.29
2023-03-29T03:12:16.205Z,6.31
2023-03-29T03:14:42.781Z,6.27
2023-03-29T03:17:09.380Z,6.28
2023-03-29T03:19:35.919Z,6.10
2023-03-29T03:22:02.466Z,6.13
2023-03-29T03:24:29.027Z,6.44
2023-03-29T03:26:55.595Z,6.35
2023-03-29T03:29:22.138Z,6.09
2023-03-29T03:31:48.751Z,5.79
2023-03-29T03:34:15.366Z,6.02
2023-03-29T03:36:42.017Z,6.10
2023-03-29T03:39:08.592Z,6.23
2023-03-29T03:41:35.150Z,6.27
2023-03-29T03:44:01.758Z,6.31
2023-03-29T03:46:29.587Z,6.30
2023-03-29T03:48:56.928Z,6.28
2023-03-29T03:51:23.512Z,5.94
2023-03-29T03:53:50.112Z,6.02
2023-03-29T03:56:16.734Z,6.27
2023-03-29T03:58:43.334Z,6.26
2023-03-29T04:01:10.017Z,6.38
2023-03-29T04:03:36.718Z,6.50
2023-03-29T04:06:03.343Z,6.49
2023-03-29T04:08:29.896Z,6.32
2023-03-29T04:10:56.520Z,6.29
2023-03-29T04:13:23.085Z,6.40
2023-03-29T04:15:49.721Z,6.51
2023-03-29T04:18:16.498Z,6.63
2023-03-29T04:20:43.202Z,6.46
2023-03-29T04:23:09.765Z,6.36
2023-03-29T04:25:36.327Z,6.22
2023-03-29T04:28:02.944Z,6.36
2023-03-29T04:30:29.571Z,6.50
2023-03-29T04:32:56.299Z,6.35
2023-03-29T04:35:23.015Z,6.36
2023-03-29T04:37:49.682Z,6.59
2023-03-29T04:40:16.213Z,6.70
2023-03-29T04:42:42.788Z,6.75
2023-03-29T04:45:09.389Z,6.47
2023-03-29T04:47:36.053Z,6.46
2023-03-29T04:50:02.663Z,6.34
2023-03-29T04:52:29.228Z,6.45
2023-03-29T04:54:55.843Z,6.15
2023-03-29T04:57:22.493Z,6.00
2023-03-29T04:59:49.170Z,5.66
2023-03-29T05:02:15.729Z,6.03
2023-03-29T05:04:42.361Z,6.48
2023-03-29T05:07:08.972Z,6.65
2023-03-29T05:09:35.682Z,6.69
2023-03-29T05:12:02.347Z,6.58
2023-03-29T05:14:29.005Z,6.50
2023-03-29T05:16:55.586Z,6.67
2023-03-29T05:19:22.176Z,6.54
2023-03-29T05:21:48.761Z,6.73
2023-03-29T05:24:15.375Z,7.00
2023-03-29T05:26:42.015Z,7.15
2023-03-29T05:29:08.586Z,7.18
2023-03-29T05:31:35.194Z,7.17
2023-03-29T05:34:02.144Z,6.96
2023-03-29T05:36:28.727Z,6.95
2023-03-29T05:38:55.311Z,7.15
2023-03-29T05:41:21.923Z,7.35
2023-03-29T05:43:48.540Z,7.16
2023-03-29T05:46:15.238Z,6.91
2023-03-29T05:48:41.892Z,7.06
2023-03-29T05:51:10.592Z,7.14
2023-03-29T05:53:37.244Z,7.12
2023-03-29T05:56:03.878Z,7.10
2023-03-29T05:58:30.642Z,7.13
2023-03-29T06:00:57.239Z,7.07
2023-03-29T06:03:24.039Z,6.90
2023-03-29T06:05:50.723Z,7.29
2023-03-29T06:08:17.315Z,7.31
2023-03-29T06:10:44.003Z,7.55
2023-03-29T06:13:10.569Z,7.26
2023-03-29T06:15:37.173Z,7.46
2023-03-29T06:18:03.860Z,7.75
2023-03-29T06:20:30.507Z,8.09
2023-03-29T06:22:57.180Z,7.84
2023-03-29T06:25:23.757Z,7.81
2023-03-29T06:27:50.450Z,7.78
2023-03-29T06:30:17.108Z,7.89
2023-03-29T06:32:43.796Z,7.86
2023-03-29T06:35:10.437Z,8.00
2023-03-29T06:37:37.015Z,8.18
2023-03-29T06:40:03.760Z,8.20
2023-03-29T06:42:30.423Z,8.31
2023-03-29T06:44:57.020Z,8.22
2023-03-29T06:47:23.647Z,8.23
2023-03-29T06:49:50.557Z,8.42
2023-03-29T06:52:17.198Z,8.56
2023-03-29T06:54:43.796Z,8.59
2023-03-29T06:57:10.426Z,8.89
2023-03-29T06:59:37.066Z,9.02
2023-03-29T07:02:03.720Z,9.12
2023-03-29T07:04:30.399Z,9.06
2023-03-29T07:06:57.025Z,9.12
2023-03-29T07:09:23.610Z,9.08
2023-03-29T07:11:50.162Z,9.27
2023-03-29T07:14:16.726Z,9.36
2023-03-29T07:16:43.355Z,9.39
2023-03-29T07:19:10.418Z,9.56
2023-03-29T07:21:38.043Z,9.62
2023-03-29T07:24:04.795Z,9.60
2023-03-29T07:26:31.356Z,9.32
2023-03-29T07:28:57.953Z,9.39
2023-03-29T07:31:24.530Z,9.41
2023-03-29T07:33:51.190Z,9.69
2023-03-29T07:36:17.901Z,9.59
2023-03-29T07:38:44.451Z,9.26
2023-03-29T07:41:11.041Z,9.10
2023-03-29T07:43:37.594Z,9.43
2023-03-29T07:46:04.227Z,9.31
2023-03-29T07:48:30.807Z,9.38
2023-03-29T07:50:57.416Z,9.73
2023-03-29T07:53:23.999Z,10.00
2023-03-29T07:55:50.563Z,10.11
2023-03-29T07:58:17.197Z,10.36
2023-03-29T08:00:43.891Z,9.85
2023-03-29T08:03:10.606Z,9.93
2023-03-29T08:05:41.482Z,10.25
2023-03-29T08:08:08.657Z,10.45
2023-03-29T08:10:35.216Z,10.33
2023-03-29T08:13:01.788Z,10.60
2023-03-29T08:15:28.393Z,10.80
2023-03-29T08:17:55.063Z,10.41
2023-03-29T08:20:21.712Z,10.34
2023-03-29T08:22:48.308Z,10.52
2023-03-29T08:25:14.868Z,10.79
2023-03-29T08:27:41.463Z,10.97
2023-03-29T08:30:08.085Z,10.77
2023-03-29T08:32:34.705Z,10.51
2023-03-29T08:35:01.323Z,10.90
2023-03-29T08:37:27.969Z,10.80
2023-03-29T08:39:54.526Z,10.98
2023-03-29T08:42:21.395Z,10.97
2023-03-29T08:44:47.996Z,11.24
2023-03-29T08:47:14.559Z,10.50
2023-03-29T08:49:41.136Z,10.92
2023-03-29T08:52:07.728Z,11.13
2023-03-29T08:54:34.334Z,11.37
2023-03-29T08:57:01.614Z,11.18
2023-03-29T08:59:28.211Z,11.47
2023-03-29T09:01:54.821Z,11.41
2023-03-29T09:04:21.440Z,10.58
2023-03-29T09:06:48.011Z,11.08
2023-03-29T09:09:14.665Z,11.21
2023-03-29T09:11:41.211Z,11.69
2023-03-29T09:14:07.765Z,11.87
2023-03-29T09:16:34.502Z,11.43
2023-03-29T09:19:01.167Z,11.65
2023-03-29T09:21:27.753Z,11.66
2023-03-29T09:23:55.711Z,11.62
2023-03-29T09:26:22.520Z,11.89
2023-03-29T09:28:49.082Z,12.05
2023-03-29T09:31:15.767Z,11.65
2023-03-29T09:33:42.385Z,10.93
2023-03-29T09:36:09.057Z,11.38
2023-03-29T09:38:35.691Z,11.82
2023-03-29T09:41:02.485Z,12.03
2023-03-29T09:43:29.333Z,12.09
2023-03-29T09:45:56.075Z,11.81
2023-03-29T09:48:22.766Z,12.04
2023-03-29T09:50:49.339Z,12.24
2023-03-29T09:53:16.025Z,11.63
2023-03-29T09:55:42.611Z,11.85
2023-03-29T09:58:09.339Z,12.03
2023-03-29T10:00:35.915Z,12.18
2023-03-29T10:03:02.581Z,11.94
2023-03-29T10:05:29.334Z,12.24
2023-03-29T10:07:55.955Z,12.39
2023-03-29T10:10:22.548Z,12.53
2023-03-29T10:12:49.147Z,12.61
2023-03-29T10:15:26.801Z,12.75
2023-03-29T10:17:56.165Z,12.81
2023-03-29T10:20:22.759Z,12.38
2023-03-29T10:22:49.458Z,12.70
2023-03-29T10:25:16.061Z,12.75
2023-03-29T10:27:42.612Z,12.81
2023-03-29T10:30:09.186Z,12.90
2023-03-29T10:32:35.821Z,12.71
2023-03-29T10:35:02.417Z,12.68
2023-03-29T10:37:29.018Z,12.94
2023-03-29T10:39:55.586Z,12.98
2023-03-29T10:42:22.175Z,13.14
2023-03-29T10:44:48.713Z,12.53
2023-03-29T10:47:15.303Z,12.53
2023-03-29T10:49:41.872Z,12.52
2023-03-29T10:52:08.474Z,12.30
2023-03-29T10:54:35.043Z,12.37
2023-03-29T10:57:01.640Z,12.65
2023-03-29T10:59:28.236Z,12.59
2023-03-29T11:01:54.839Z,12.97
2023-03-29T11:04:21.448Z,13.38
2023-03-29T11:06:48.045Z,13.70
2023-03-29T11:09:14.616Z,13.35
2023-03-29T11:11:41.209Z,12.94
2023-03-29T11:14:07.924Z,12.85
2023-03-29T11:16:34.522Z,13.10
2023-03-29T11:19:01.140Z,12.82
2023-03-29T11:21:27.743Z,13.22
2023-03-29T11:23:54.358Z,13.46
2023-03-29T11:26:20.917Z,13.72
2023-03-29T11:28:47.472Z,13.89
2023-03-29T11:31:14.135Z,13.82
2023-03-29T11:33:40.713Z,14.08
2023-03-29T11:36:07.378Z,14.35
2023-03-29T11:38:33.977Z,14.24
2023-03-29T11:41:00.791Z,14.15
2023-03-29T11:43:27.524Z,14.23
2023-03-29T11:45:54.080Z,14.50
2023-03-29T11:48:20.658Z,14.35
2023-03-29T11:50:47.230Z,14.16
2023-03-29T11:53:13.805Z,14.46
2023-03-29T11:55:40.415Z,14.57
2023-03-29T11:58:06.976Z,14.32
2023-03-29T12:00:33.557Z,14.68
2023-03-29T12:03:00.355Z,14.56
2023-03-29T12:05:27.012Z,14.66
2023-03-29T12:07:53.583Z,14.75
2023-03-29T12:10:20.152Z,15.26
2023-03-29T12:12:46.784Z,15.90
2023-03-29T12:15:13.400Z,14.57
2023-03-29T12:17:40.035Z,15.88
2023-03-29T12:20:06.640Z,16.59
2023-03-29T12:22:33.250Z,17.32
2023-03-29T12:24:59.796Z,17.23
2023-03-29T12:27:26.480Z,15.61
2023-03-29T12:29:53.170Z,14.98
2023-03-29T12:32:19.862Z,14.35
2023-03-29T12:34:46.597Z,14.55
2023-03-29T12:37:13.229Z,14.32
2023-03-29T12:39:39.790Z,15.12
2023-03-29T12:42:06.355Z,15.51
2023-03-29T12:44:32.985Z,15.32
2023-03-29T12:46:59.588Z,14.76
2023-03-29T12:49:26.170Z,15.18
2023-03-29T12:51:52.749Z,15.60
2023-03-29T12:54:19.352Z,15.53
2023-03-29T12:56:45.914Z,14.43
2023-03-29T12:59:12.519Z,14.47
2023-03-29T13:01:39.244Z,15.39
2023-03-29T13:04:05.965Z,15.66
2023-03-29T13:06:32.520Z,15.93
2023-03-29T13:08:59.254Z,16.48
2023-03-29T13:11:25.823Z,16.28
2023-03-29T13:13:52.422Z,16.47
2023-03-29T13:16:19.021Z,16.18
2023-03-29T13:18:45.579Z,15.79
2023-03-29T13:21:12.171Z,15.81
2023-03-29T13:23:38.752Z,16.34
2023-03-29T13:26:05.485Z,16.87
2023-03-29T13:28:32.180Z,17.12
2023-03-29T13:30:58.774Z,17.28
2023-03-29T13:33:25.365Z,16.71
2023-03-29T13:35:51.959Z,16.92
2023-03-29T13:38:18.629Z,16.77
2023-03-29T13:40:45.177Z,16.90
2023-03-29T13:43:11.791Z,17.10
2023-03-29T13:45:38.355Z,16.97
2023-03-29T13:48:05.833Z,16.75
2023-03-29T13:50:32.914Z,16.33
2023-03-29T13:52:59.544Z,16.68
2023-03-29T13:55:26.113Z,17.15
2023-03-29T13:57:52.780Z,17.35
2023-03-29T14:00:19.386Z,17.06
2023-03-29T14:02:48.721Z,17.24
2023-03-29T14:05:15.916Z,16.64
2023-03-29T14:07:42.496Z,16.78
2023-03-29T14:10:09.096Z,17.18
2023-03-29T14:12:35.684Z,17.46
2023-03-29T14:15:02.291Z,17.09
2023-03-29T14:17:28.948Z,17.33
2023-03-29T14:19:55.516Z,17.12
2023-03-29T14:22:22.093Z,17.78
2023-03-29T14:24:48.663Z,17.28
2023-03-29T14:27:15.275Z,17.18
2023-03-29T14:29:41.824Z,18.12
2023-03-29T14:32:08.541Z,18.83
2023-03-29T14:34:35.172Z,17.96
2023-03-29T14:37:01.796Z,17.80
2023-03-29T14:39:28.437Z,17.16
2023-03-29T14:41:55.032Z,16.95
2023-03-29T14:44:21.627Z,16.62
2023-03-29T14:46:48.205Z,16.30
2023-03-29T14:49:14.788Z,16.65
2023-03-29T14:51:43.743Z,17.09
2023-03-29T14:54:10.340Z,17.67
2023-03-29T14:56:36.916Z,18.64
2023-03-29T14:59:03.525Z,18.78
2023-03-29T15:01:30.151Z,17.09
2023-03-29T15:03:56.857Z,17.79
2023-03-29T15:06:23.549Z,18.30
2023-03-29T15:09:03.745Z,18.49
2023-03-29T15:11:31.412Z,18.95
2023-03-29T15:13:58.049Z,19.54
2023-03-29T15:16:24.718Z,19.14
2023-03-29T15:18:51.301Z,18.89
2023-03-29T15:21:18.196Z,18.45
2023-03-29T15:23:44.856Z,18.65
2023-03-29T15:26:11.480Z,17.27
2023-03-29T15:28:38.040Z,16.75
2023-03-29T15:31:08.246Z,17.11
2023-03-29T15:33:35.272Z,17.48
2023-03-29T15:36:02.288Z,18.03
2023-03-29T15:38:36.734Z,18.15
2023-03-29T15:41:10.234Z,18.28
2023-03-29T15:43:36.829Z,18.41
2023-03-29T15:46:03.936Z,18.41
2023-03-29T15:48:30.810Z,18.20
2023-03-29T15:50:59.244Z,17.87
2023-03-29T15:53:28.129Z,17.92
2023-03-29T15:55:54.756Z,17.72
2023-03-29T15:58:21.423Z,17.68
2023-03-29T16:00:48.020Z,17.48
2023-03-29T16:03:14.716Z,17.63
2023-03-29T16:05:41.330Z,17.62
2023-03-29T16:08:07.928Z,17.40
2023-03-29T16:10:34.473Z,17.22
2023-03-29T16:13:01.058Z,17.03
2023-03-29T16:15:27.608Z,17.05
2023-03-29T16:17:54.250Z,17.01
2023-03-29T16:20:20.844Z,16.90
2023-03-29T16:22:47.394Z,17.00
2023-03-29T16:25:14.003Z,17.02
2023-03-29T16:27:40.617Z,16.96
2023-03-29T16:30:07.198Z,16.25
2023-03-29T16:32:33.825Z,16.35
2023-03-29T16:35:00.433Z,16.40
2023-03-29T16:37:26.997Z,16.48
2023-03-29T16:39:53.574Z,16.39
2023-03-29T16:42:20.114Z,16.26
2023-03-29T16:44:46.684Z,16.35
2023-03-29T16:47:13.391Z,16.44
2023-03-29T16:49:40.286Z,16.33
2023-03-29T16:52:07.124Z,16.26
2023-03-29T16:54:33.684Z,15.47
2023-03-29T16:57:00.356Z,15.42
2023-03-29T16:59:26.937Z,15.60
2023-03-29T17:01:53.564Z,15.23
2023-03-29T17:04:20.246Z,15.53
2023-03-29T17:06:47.032Z,15.44
2023-03-29T17:09:13.605Z,14.91
2023-03-29T17:11:40.164Z,15.04
2023-03-29T17:14:06.789Z,15.26
2023-03-29T17:16:33.457Z,15.17
2023-03-29T17:19:00.318Z,15.21
2023-03-29T17:21:27.137Z,15.28
2023-03-29T17:23:53.755Z,15.14
2023-03-29T17:26:20.326Z,14.99
2023-03-29T17:28:46.950Z,14.66
2023-03-29T17:31:13.618Z,14.77
2023-03-29T17:33:40.191Z,14.97
2023-03-29T17:36:07.320Z,15.00
2023-03-29T17:38:34.497Z,14.95
2023-03-29T17:41:01.144Z,14.94
2023-03-29T17:43:27.768Z,15.01
2023-03-29T17:45:54.322Z,14.99
2023-03-29T17:48:21.085Z,15.07
2023-03-29T17:50:47.726Z,15.18
2023-03-29T17:53:14.280Z,15.03
2023-03-29T17:55:40.893Z,14.71
2023-03-29T17:58:07.471Z,14.73
2023-03-29T18:00:34.177Z,14.58
2023-03-29T18:03:00.830Z,14.60
2023-03-29T18:05:27.396Z,14.68
2023-03-29T18:07:53.955Z,14.68
2023-03-29T18:10:20.845Z,14.68
2023-03-29T18:12:47.470Z,14.59
2023-03-29T18:15:14.001Z,14.62
2023-03-29T18:17:40.598Z,14.34
2023-03-29T18:20:07.209Z,14.22
2023-03-29T18:22:33.771Z,13.95
2023-03-29T18:25:00.382Z,13.91
2023-03-29T18:27:26.981Z,13.78
2023-03-29T18:29:53.549Z,13.73
2023-03-29T18:32:20.196Z,13.93
2023-03-29T18:34:46.829Z,13.74
2023-03-29T18:37:13.446Z,13.61
2023-03-29T18:39:40.010Z,13.56
2023-03-29T18:42:06.591Z,13.44
2023-03-29T18:44:33.140Z,13.27
2023-03-29T18:46:59.737Z,13.28
2023-03-29T18:49:26.299Z,13.46
2023-03-29T18:51:52.890Z,13.39
2023-03-29T18:54:19.464Z,13.04
2023-03-29T18:56:46.127Z,13.24
2023-03-29T18:59:12.736Z,12.98
2023-03-29T19:01:39.364Z,12.76
2023-03-29T19:04:05.955Z,12.91
2023-03-29T19:06:32.530Z,12.95
2023-03-29T19:08:59.187Z,12.44
2023-03-29T19:11:27.713Z,12.12
2023-03-29T19:13:55.593Z,12.07
2023-03-29T19:16:22.446Z,12.14
2023-03-29T19:18:49.126Z,12.10
2023-03-29T19:21:15.735Z,12.13
2023-03-29T19:23:42.309Z,12.03
2023-03-29T19:26:08.901Z,11.88
2023-03-29T19:28:35.772Z,12.01
2023-03-29T19:31:02.426Z,11.78
2023-03-29T19:33:29.046Z,11.74
2023-03-29T19:35:55.672Z,11.60
2023-03-29T19:38:22.405Z,11.45
2023-03-29T19:40:48.957Z,11.52
2023-03-29T19:43:15.536Z,11.53
2023-03-29T19:45:42.102Z,11.42
2023-03-29T19:48:19.445Z,11.25
2023-03-29T19:50:48.308Z,11.17
2023-03-29T19:53:14.888Z,11.13
2023-03-29T19:55:41.473Z,11.10
2023-03-29T19:58:08.011Z,10.81
2023-03-29T20:00:34.601Z,10.87
2023-03-29T20:03:01.302Z,10.85
2023-03-29T20:05:27.945Z,10.84
2023-03-29T20:07:54.509Z,10.77
2023-03-29T20:10:21.142Z,10.71
2023-03-29T20:12:47.739Z,10.77
2023-03-29T20:15:14.512Z,10.66
2023-03-29T20:17:41.183Z,10.61
2023-03-29T20:20:07.766Z,10.58
2023-03-29T20:22:34.352Z,10.58
2023-03-29T20:25:00.937Z,10.56
2023-03-29T20:27:27.477Z,10.48
2023-03-29T20:29:54.039Z,10.40
2023-03-29T20:32:20.829Z,10.29
2023-03-29T20:34:47.533Z,10.30
2023-03-29T20:37:14.087Z,10.19
2023-03-29T20:39:40.728Z,10.03
2023-03-29T20:42:07.321Z,9.94
2023-03-29T20:44:35.322Z,9.92
2023-03-29T20:47:02.044Z,9.88
2023-03-29T20:49:28.639Z,9.89
2023-03-29T20:51:55.258Z,9.88
2023-03-29T20:54:21.808Z,9.94
2023-03-29T20:56:48.448Z,9.84
2023-03-29T20:59:15.101Z,9.77
2023-03-29T21:01:41.682Z,9.79
2023-03-29T21:04:08.281Z,9.65
2023-03-29T21:06:34.874Z,9.55
2023-03-29T21:09:01.460Z,9.57
2023-03-29T21:11:29.661Z,9.57
2023-03-29T21:13:56.283Z,9.58
2023-03-29T21:16:23.084Z,9.44
2023-03-29T21:18:49.739Z,9.24
2023-03-29T21:21:16.319Z,9.34
2023-03-29T21:23:42.981Z,9.37
2023-03-29T21:26:09.604Z,9.36
2023-03-29T21:28:36.180Z,9.34
2023-03-29T21:31:02.978Z,9.42
2023-03-29T21:33:29.800Z,9.25
2023-03-29T21:35:56.485Z,8.92
2023-03-29T21:38:23.071Z,8.93
2023-03-29T21:40:49.619Z,9.17
2023-03-29T21:43:16.177Z,9.04
2023-03-29T21:45:42.844Z,8.84
2023-03-29T21:48:09.530Z,8.59
2023-03-29T21:50:36.147Z,8.78
2023-03-29T21:53:02.711Z,8.93
2023-03-29T21:55:29.274Z,8.88
2023-03-29T21:57:55.846Z,8.92
2023-03-29T22:00:22.418Z,8.94
2023-03-29T22:02:49.035Z,8.50
2023-03-29T22:05:15.662Z,8.53
2023-03-29T22:07:42.202Z,8.68
2023-03-29T22:10:08.791Z,8.41
2023-03-29T22:12:35.370Z,8.14
2023-03-29T22:15:01.997Z,8.25
2023-03-29T22:17:28.617Z,8.42
2023-03-29T22:19:55.264Z,8.39
2023-03-29T22:22:21.803Z,8.30
2023-03-29T22:24:48.361Z,8.21
2023-03-29T22:27:14.939Z,8.25
2023-03-29T22:29:41.479Z,8.06
2023-03-29T22:32:08.149Z,8.19
2023-03-29T22:34:34.856Z,8.29
2023-03-29T22:37:01.468Z,8.33
2023-03-29T22:39:28.048Z,8.01
2023-03-29T22:41:54.623Z,7.97
2023-03-29T22:44:21.197Z,8.17
2023-03-29T22:46:47.876Z,8.13
2023-03-29T22:49:14.422Z,8.08
2023-03-29T22:51:41.271Z,8.04
2023-03-29T22:54:07.869Z,8.09
2023-03-29T22:56:34.422Z,7.93
2023-03-29T22:59:01.028Z,8.17
2023-03-29T23:01:27.760Z,8.33
2023-03-29T23:03:54.383Z,8.41
2023-03-29T23:06:20.997Z,8.53
2023-03-29T23:08:47.584Z,8.54
2023-03-29T23:11:14.164Z,8.32
2023-03-29T23:13:40.729Z,8.59
2023-03-29T23:16:07.295Z,8.58
2023-03-29T23:18:33.882Z,8.56
2023-03-29T23:21:00.440Z,8.34
2023-03-29T23:23:27.109Z,8.69
2023-03-29T23:25:53.666Z,8.46
2023-03-29T23:28:20.251Z,8.62
2023-03-29T23:30:46.818Z,8.74
2023-03-29T23:33:13.366Z,8.93
2023-03-29T23:35:40.006Z,8.78
2023-03-29T23:38:06.598Z,8.72
2023-03-29T23:40:33.180Z,8.85
2023-03-29T23:42:59.902Z,8.98
2023-03-29T23:45:26.527Z,8.95
2023-03-29T23:47:53.142Z,9.00
2023-03-29T23:50:19.701Z,9.06
2023-03-29T23:52:46.273Z,9.08
2023-03-29T23:55:12.819Z,8.56
2023-03-29T23:57:39.390Z,8.57
